sensor_id;sensor_type;location;lat;lon;timestamp;P1;durP1;ratioP1;P2;durP2;ratioP2
24617;SDS011;12762;51.730;5.356;2022-08-05T00:00:17;4.17;;;1.87;;
24617;SDS011;12762;51.730;5.356;2022-08-05T00:02:45;4.87;;;2.00;;
24617;SDS011;12762;51.730;5.356;2022-08-05T00:05:17;6.80;;;1.90;;
24617;SDS011;12762;51.730;5.356;2022-08-05T00:08:05;5.30;;;2.20;;
24617;SDS011;12762;51.730;5.356;2022-08-05T00:10:52;5.27;;;2.03;;
24617;SDS011;12762;51.730;5.356;2022-08-05T00:13:19;6.07;;;2.13;;
24617;SDS011;12762;51.730;5.356;2022-08-05T00:16:05;4.33;;;2.27;;
24617;SDS011;12762;51.730;5.356;2022-08-05T00:18:34;7.03;;;2.90;;
24617;SDS011;12762;51.730;5.356;2022-08-05T00:21:03;6.47;;;2.43;;
24617;SDS011;12762;51.730;5.356;2022-08-05T00:23:33;6.57;;;2.23;;
24617;SDS011;12762;51.730;5.356;2022-08-05T00:26:12;6.93;;;2.20;;
24617;SDS011;12762;51.730;5.356;2022-08-05T00:28:42;9.40;;;2.33;;
24617;SDS011;12762;51.730;5.356;2022-08-05T00:31:11;5.40;;;2.17;;
24617;SDS011;12762;51.730;5.356;2022-08-05T00:33:38;8.57;;;2.70;;
24617;SDS011;12762;51.730;5.356;2022-08-05T00:36:25;8.23;;;2.07;;
24617;SDS011;12762;51.730;5.356;2022-08-05T00:39:12;6.13;;;2.03;;
24617;SDS011;12762;51.730;5.356;2022-08-05T00:41:43;5.97;;;2.27;;
24617;SDS011;12762;51.730;5.356;2022-08-05T00:44:21;8.03;;;2.43;;
24617;SDS011;12762;51.730;5.356;2022-08-05T00:46:56;9.47;;;2.53;;
24617;SDS011;12762;51.730;5.356;2022-08-05T00:49:31;7.10;;;2.77;;
24617;SDS011;12762;51.730;5.356;2022-08-05T00:52:17;7.17;;;2.20;;
24617;SDS011;12762;51.730;5.356;2022-08-05T00:54:54;5.80;;;2.03;;
24617;SDS011;12762;51.730;5.356;2022-08-05T00:57:21;8.90;;;2.43;;
24617;SDS011;12762;51.730;5.356;2022-08-05T00:59:57;7.10;;;2.37;;
24617;SDS011;12762;51.730;5.356;2022-08-05T01:02:23;7.23;;;2.20;;
24617;SDS011;12762;51.730;5.356;2022-08-05T01:04:50;5.53;;;2.23;;
24617;SDS011;12762;51.730;5.356;2022-08-05T01:07:17;4.90;;;2.33;;
24617;SDS011;12762;51.730;5.356;2022-08-05T01:09:44;7.47;;;2.40;;
24617;SDS011;12762;51.730;5.356;2022-08-05T01:12:20;7.53;;;2.50;;
24617;SDS011;12762;51.730;5.356;2022-08-05T01:14:56;8.37;;;2.43;;
24617;SDS011;12762;51.730;5.356;2022-08-05T01:17:44;5.20;;;2.20;;
24617;SDS011;12762;51.730;5.356;2022-08-05T01:28:44;8.67;;;2.73;;
24617;SDS011;12762;51.730;5.356;2022-08-05T01:31:27;10.20;;;2.67;;
24617;SDS011;12762;51.730;5.356;2022-08-05T01:36:46;7.60;;;2.57;;
24617;SDS011;12762;51.730;5.356;2022-08-05T01:39:26;7.33;;;2.37;;
24617;SDS011;12762;51.730;5.356;2022-08-05T01:42:13;11.23;;;2.43;;
24617;SDS011;12762;51.730;5.356;2022-08-05T01:44:44;10.23;;;2.73;;
24617;SDS011;12762;51.730;5.356;2022-08-05T01:47:19;5.97;;;2.10;;
24617;SDS011;12762;51.730;5.356;2022-08-05T01:49:55;8.50;;;2.40;;
24617;SDS011;12762;51.730;5.356;2022-08-05T01:52:28;6.87;;;2.57;;
24617;SDS011;12762;51.730;5.356;2022-08-05T01:54:59;6.87;;;2.23;;
24617;SDS011;12762;51.730;5.356;2022-08-05T01:57:32;5.33;;;2.37;;
24617;SDS011;12762;51.730;5.356;2022-08-05T02:00:26;7.17;;;3.23;;
24617;SDS011;12762;51.730;5.356;2022-08-05T02:03:00;8.70;;;2.30;;
24617;SDS011;12762;51.730;5.356;2022-08-05T02:05:53;5.87;;;2.20;;
24617;SDS011;12762;51.730;5.356;2022-08-05T02:08:25;6.93;;;2.27;;
24617;SDS011;12762;51.730;5.356;2022-08-05T02:10:58;7.83;;;2.50;;
24617;SDS011;12762;51.730;5.356;2022-08-05T02:13:40;5.57;;;2.20;;
24617;SDS011;12762;51.730;5.356;2022-08-05T02:16:26;10.10;;;2.33;;
24617;SDS011;12762;51.730;5.356;2022-08-05T02:18:59;9.30;;;2.70;;
24617;SDS011;12762;51.730;5.356;2022-08-05T02:21:40;7.93;;;2.30;;
24617;SDS011;12762;51.730;5.356;2022-08-05T02:24:16;6.50;;;2.60;;
24617;SDS011;12762;51.730;5.356;2022-08-05T02:26:50;8.63;;;2.70;;
24617;SDS011;12762;51.730;5.356;2022-08-05T02:29:21;8.50;;;2.40;;
24617;SDS011;12762;51.730;5.356;2022-08-05T02:32:11;7.60;;;2.50;;
24617;SDS011;12762;51.730;5.356;2022-08-05T02:34:49;9.00;;;2.70;;
24617;SDS011;12762;51.730;5.356;2022-08-05T02:37:20;10.07;;;2.43;;
24617;SDS011;12762;51.730;5.356;2022-08-05T02:39:50;6.53;;;2.37;;
24617;SDS011;12762;51.730;5.356;2022-08-05T02:42:18;6.47;;;2.43;;
24617;SDS011;12762;51.730;5.356;2022-08-05T02:44:55;6.80;;;2.60;;
24617;SDS011;12762;51.730;5.356;2022-08-05T02:47:23;5.70;;;2.17;;
24617;SDS011;12762;51.730;5.356;2022-08-05T02:50:12;7.50;;;2.10;;
24617;SDS011;12762;51.730;5.356;2022-08-05T02:52:43;7.27;;;2.33;;
24617;SDS011;12762;51.730;5.356;2022-08-05T02:55:12;6.90;;;2.40;;
24617;SDS011;12762;51.730;5.356;2022-08-05T02:57:59;4.13;;;2.30;;
24617;SDS011;12762;51.730;5.356;2022-08-05T03:00:38;4.73;;;2.10;;
24617;SDS011;12762;51.730;5.356;2022-08-05T03:03:12;12.10;;;2.30;;
24617;SDS011;12762;51.730;5.356;2022-08-05T03:05:44;3.77;;;1.73;;
24617;SDS011;12762;51.730;5.356;2022-08-05T03:08:32;8.10;;;2.30;;
24617;SDS011;12762;51.730;5.356;2022-08-05T03:11:01;9.93;;;2.80;;
24617;SDS011;12762;51.730;5.356;2022-08-05T03:13:48;8.27;;;2.53;;
24617;SDS011;12762;51.730;5.356;2022-08-05T03:16:28;7.77;;;2.60;;
24617;SDS011;12762;51.730;5.356;2022-08-05T03:18:56;6.00;;;2.80;;
24617;SDS011;12762;51.730;5.356;2022-08-05T03:21:24;8.73;;;2.90;;
24617;SDS011;12762;51.730;5.356;2022-08-05T03:23:54;9.03;;;2.40;;
24617;SDS011;12762;51.730;5.356;2022-08-05T03:26:21;9.83;;;2.63;;
24617;SDS011;12762;51.730;5.356;2022-08-05T03:28:57;9.30;;;2.83;;
24617;SDS011;12762;51.730;5.356;2022-08-05T03:31:24;5.27;;;2.20;;
24617;SDS011;12762;51.730;5.356;2022-08-05T03:34:11;7.37;;;2.40;;
24617;SDS011;12762;51.730;5.356;2022-08-05T03:36:39;5.97;;;2.40;;
24617;SDS011;12762;51.730;5.356;2022-08-05T03:39:06;6.50;;;2.50;;
24617;SDS011;12762;51.730;5.356;2022-08-05T03:41:52;7.17;;;2.20;;
24617;SDS011;12762;51.730;5.356;2022-08-05T03:44:21;5.83;;;2.13;;
24617;SDS011;12762;51.730;5.356;2022-08-05T03:46:49;5.13;;;2.10;;
24617;SDS011;12762;51.730;5.356;2022-08-05T03:49:16;5.70;;;2.03;;
24617;SDS011;12762;51.730;5.356;2022-08-05T03:51:45;7.73;;;2.37;;
24617;SDS011;12762;51.730;5.356;2022-08-05T03:54:54;9.07;;;2.37;;
24617;SDS011;12762;51.730;5.356;2022-08-05T03:57:44;4.17;;;2.50;;
24617;SDS011;12762;51.730;5.356;2022-08-05T04:00:13;7.70;;;2.57;;
24617;SDS011;12762;51.730;5.356;2022-08-05T04:02:43;5.53;;;2.20;;
24617;SDS011;12762;51.730;5.356;2022-08-05T04:05:24;3.47;;;1.90;;
24617;SDS011;12762;51.730;5.356;2022-08-05T04:08:00;7.40;;;2.30;;
24617;SDS011;12762;51.730;5.356;2022-08-05T04:10:31;6.63;;;2.17;;
24617;SDS011;12762;51.730;5.356;2022-08-05T04:13:03;5.93;;;2.33;;
24617;SDS011;12762;51.730;5.356;2022-08-05T04:15:32;4.77;;;2.03;;
24617;SDS011;12762;51.730;5.356;2022-08-05T04:18:02;6.53;;;2.47;;
24617;SDS011;12762;51.730;5.356;2022-08-05T04:20:34;4.63;;;2.33;;
24617;SDS011;12762;51.730;5.356;2022-08-05T04:23:01;6.80;;;1.77;;
24617;SDS011;12762;51.730;5.356;2022-08-05T04:25:28;5.60;;;2.00;;
24617;SDS011;12762;51.730;5.356;2022-08-05T04:28:15;5.00;;;2.30;;
24617;SDS011;12762;51.730;5.356;2022-08-05T04:30:43;5.37;;;2.50;;
24617;SDS011;12762;51.730;5.356;2022-08-05T04:33:11;9.40;;;2.20;;
24617;SDS011;12762;51.730;5.356;2022-08-05T04:35:38;5.73;;;1.77;;
24617;SDS011;12762;51.730;5.356;2022-08-05T04:38:26;5.07;;;1.97;;
24617;SDS011;12762;51.730;5.356;2022-08-05T04:41:05;3.90;;;1.90;;
24617;SDS011;12762;51.730;5.356;2022-08-05T04:43:35;7.77;;;2.50;;
24617;SDS011;12762;51.730;5.356;2022-08-05T04:46:05;7.90;;;2.53;;
24617;SDS011;12762;51.730;5.356;2022-08-05T04:48:32;7.40;;;2.00;;
24617;SDS011;12762;51.730;5.356;2022-08-05T04:50:59;8.23;;;2.73;;
24617;SDS011;12762;51.730;5.356;2022-08-05T04:53:36;5.37;;;2.40;;
24617;SDS011;12762;51.730;5.356;2022-08-05T04:56:04;10.13;;;3.30;;
24617;SDS011;12762;51.730;5.356;2022-08-05T04:58:52;4.93;;;2.27;;
24617;SDS011;12762;51.730;5.356;2022-08-05T05:01:19;6.27;;;2.20;;
24617;SDS011;12762;51.730;5.356;2022-08-05T05:04:06;6.57;;;2.30;;
24617;SDS011;12762;51.730;5.356;2022-08-05T05:06:34;6.20;;;2.77;;
24617;SDS011;12762;51.730;5.356;2022-08-05T05:09:10;6.63;;;2.80;;
24617;SDS011;12762;51.730;5.356;2022-08-05T05:11:42;8.27;;;2.20;;
24617;SDS011;12762;51.730;5.356;2022-08-05T05:14:20;7.37;;;2.47;;
24617;SDS011;12762;51.730;5.356;2022-08-05T05:16:57;8.17;;;2.40;;
24617;SDS011;12762;51.730;5.356;2022-08-05T05:19:28;7.50;;;2.27;;
24617;SDS011;12762;51.730;5.356;2022-08-05T05:22:09;5.83;;;2.00;;
24617;SDS011;12762;51.730;5.356;2022-08-05T05:24:51;5.80;;;2.50;;
24617;SDS011;12762;51.730;5.356;2022-08-05T05:27:23;7.53;;;2.50;;
24617;SDS011;12762;51.730;5.356;2022-08-05T05:30:13;10.00;;;2.63;;
24617;SDS011;12762;51.730;5.356;2022-08-05T05:32:59;4.07;;;1.90;;
24617;SDS011;12762;51.730;5.356;2022-08-05T05:35:34;5.57;;;2.20;;
24617;SDS011;12762;51.730;5.356;2022-08-05T05:38:07;3.00;;;1.90;;
24617;SDS011;12762;51.730;5.356;2022-08-05T05:40:39;4.50;;;1.70;;
24617;SDS011;12762;51.730;5.356;2022-08-05T05:43:17;9.93;;;2.67;;
24617;SDS011;12762;51.730;5.356;2022-08-05T05:46:05;5.83;;;2.30;;
24617;SDS011;12762;51.730;5.356;2022-08-05T05:48:41;5.67;;;2.53;;
24617;SDS011;12762;51.730;5.356;2022-08-05T05:51:10;6.33;;;2.13;;
24617;SDS011;12762;51.730;5.356;2022-08-05T05:53:41;7.33;;;2.50;;
24617;SDS011;12762;51.730;5.356;2022-08-05T05:56:24;5.43;;;2.50;;
24617;SDS011;12762;51.730;5.356;2022-08-05T05:59:03;7.63;;;2.30;;
24617;SDS011;12762;51.730;5.356;2022-08-05T06:01:33;5.13;;;2.60;;
24617;SDS011;12762;51.730;5.356;2022-08-05T06:04:07;9.80;;;3.10;;
24617;SDS011;12762;51.730;5.356;2022-08-05T06:06:41;6.93;;;2.93;;
24617;SDS011;12762;51.730;5.356;2022-08-05T06:09:14;7.60;;;2.83;;
24617;SDS011;12762;51.730;5.356;2022-08-05T06:12:01;7.70;;;2.80;;
24617;SDS011;12762;51.730;5.356;2022-08-05T06:14:29;5.33;;;2.70;;
24617;SDS011;12762;51.730;5.356;2022-08-05T06:16:58;7.37;;;2.90;;
24617;SDS011;12762;51.730;5.356;2022-08-05T06:19:46;4.83;;;2.50;;
24617;SDS011;12762;51.730;5.356;2022-08-05T06:22:28;4.33;;;2.33;;
24617;SDS011;12762;51.730;5.356;2022-08-05T06:24:58;7.47;;;2.60;;
24617;SDS011;12762;51.730;5.356;2022-08-05T06:27:46;4.80;;;2.87;;
24617;SDS011;12762;51.730;5.356;2022-08-05T06:30:33;5.27;;;2.23;;
24617;SDS011;12762;51.730;5.356;2022-08-05T06:33:00;5.67;;;2.37;;
24617;SDS011;12762;51.730;5.356;2022-08-05T06:35:28;7.63;;;2.57;;
24617;SDS011;12762;51.730;5.356;2022-08-05T06:38:14;4.50;;;2.37;;
24617;SDS011;12762;51.730;5.356;2022-08-05T06:40:41;7.90;;;2.10;;
24617;SDS011;12762;51.730;5.356;2022-08-05T06:43:10;8.47;;;2.70;;
24617;SDS011;12762;51.730;5.356;2022-08-05T06:45:58;4.93;;;2.10;;
24617;SDS011;12762;51.730;5.356;2022-08-05T06:48:32;7.33;;;2.50;;
24617;SDS011;12762;51.730;5.356;2022-08-05T06:51:20;6.20;;;2.07;;
24617;SDS011;12762;51.730;5.356;2022-08-05T06:53:56;8.90;;;2.43;;
24617;SDS011;12762;51.730;5.356;2022-08-05T06:56:27;5.13;;;2.00;;
24617;SDS011;12762;51.730;5.356;2022-08-05T06:58:59;6.17;;;2.40;;
24617;SDS011;12762;51.730;5.356;2022-08-05T07:01:25;5.33;;;2.07;;
24617;SDS011;12762;51.730;5.356;2022-08-05T07:03:59;8.83;;;2.27;;
24617;SDS011;12762;51.730;5.356;2022-08-05T07:06:28;10.47;;;3.10;;
24617;SDS011;12762;51.730;5.356;2022-08-05T07:08:57;7.93;;;2.37;;
24617;SDS011;12762;51.730;5.356;2022-08-05T07:11:24;4.40;;;1.70;;
24617;SDS011;12762;51.730;5.356;2022-08-05T07:13:53;4.23;;;1.70;;
24617;SDS011;12762;51.730;5.356;2022-08-05T07:16:46;5.50;;;2.00;;
24617;SDS011;12762;51.730;5.356;2022-08-05T07:19:36;6.83;;;1.70;;
24617;SDS011;12762;51.730;5.356;2022-08-05T07:22:23;3.20;;;2.00;;
24617;SDS011;12762;51.730;5.356;2022-08-05T07:24:55;5.90;;;1.73;;
24617;SDS011;12762;51.730;5.356;2022-08-05T07:27:49;4.07;;;1.73;;
24617;SDS011;12762;51.730;5.356;2022-08-05T07:30:28;6.40;;;1.73;;
24617;SDS011;12762;51.730;5.356;2022-08-05T07:33:04;4.13;;;1.63;;
24617;SDS011;12762;51.730;5.356;2022-08-05T07:35:36;5.77;;;1.67;;
24617;SDS011;12762;51.730;5.356;2022-08-05T07:38:24;3.53;;;1.70;;
24617;SDS011;12762;51.730;5.356;2022-08-05T07:41:04;3.00;;;1.43;;
24617;SDS011;12762;51.730;5.356;2022-08-05T07:43:56;4.37;;;1.50;;
24617;SDS011;12762;51.730;5.356;2022-08-05T07:46:28;4.63;;;1.50;;
24617;SDS011;12762;51.730;5.356;2022-08-05T07:48:59;4.00;;;1.57;;
24617;SDS011;12762;51.730;5.356;2022-08-05T07:51:32;5.27;;;1.53;;
24617;SDS011;12762;51.730;5.356;2022-08-05T07:54:06;8.90;;;1.67;;
24617;SDS011;12762;51.730;5.356;2022-08-05T07:56:35;2.07;;;1.20;;
24617;SDS011;12762;51.730;5.356;2022-08-05T07:59:23;7.63;;;1.60;;
24617;SDS011;12762;51.730;5.356;2022-08-05T08:02:05;3.93;;;1.37;;
24617;SDS011;12762;51.730;5.356;2022-08-05T08:04:43;3.63;;;1.33;;
24617;SDS011;12762;51.730;5.356;2022-08-05T08:07:11;3.93;;;1.30;;
24617;SDS011;12762;51.730;5.356;2022-08-05T08:09:38;3.40;;;1.23;;
24617;SDS011;12762;51.730;5.356;2022-08-05T08:12:05;6.43;;;1.50;;
24617;SDS011;12762;51.730;5.356;2022-08-05T08:14:52;4.77;;;1.37;;
24617;SDS011;12762;51.730;5.356;2022-08-05T08:17:19;6.57;;;1.30;;
24617;SDS011;12762;51.730;5.356;2022-08-05T08:19:47;4.77;;;1.30;;
24617;SDS011;12762;51.730;5.356;2022-08-05T08:22:34;4.33;;;1.50;;
24617;SDS011;12762;51.730;5.356;2022-08-05T08:25:01;4.43;;;1.23;;
24617;SDS011;12762;51.730;5.356;2022-08-05T08:27:41;4.73;;;1.40;;
24617;SDS011;12762;51.730;5.356;2022-08-05T08:30:16;2.50;;;1.00;;
24617;SDS011;12762;51.730;5.356;2022-08-05T08:32:59;4.47;;;1.67;;
24617;SDS011;12762;51.730;5.356;2022-08-05T08:35:29;4.03;;;1.23;;
24617;SDS011;12762;51.730;5.356;2022-08-05T08:38:05;2.45;;;0.90;;
24617;SDS011;12762;51.730;5.356;2022-08-05T08:40:33;3.92;;;1.38;;
24617;SDS011;12762;51.730;5.356;2022-08-05T08:43:01;3.05;;;1.15;;
24617;SDS011;12762;51.730;5.356;2022-08-05T08:45:49;5.90;;;1.25;;
24617;SDS011;12762;51.730;5.356;2022-08-05T08:48:19;2.60;;;1.00;;
24617;SDS011;12762;51.730;5.356;2022-08-05T08:51:06;3.83;;;1.17;;
24617;SDS011;12762;51.730;5.356;2022-08-05T08:53:53;4.85;;;1.10;;
24617;SDS011;12762;51.730;5.356;2022-08-05T08:56:21;2.20;;;1.00;;
24617;SDS011;12762;51.730;5.356;2022-08-05T08:58:52;1.80;;;0.90;;
24617;SDS011;12762;51.730;5.356;2022-08-05T09:01:19;6.03;;;1.33;;
24617;SDS011;12762;51.730;5.356;2022-08-05T09:03:48;2.08;;;1.20;;
24617;SDS011;12762;51.730;5.356;2022-08-05T09:06:21;2.45;;;0.70;;
24617;SDS011;12762;51.730;5.356;2022-08-05T09:08:54;1.80;;;0.60;;
24617;SDS011;12762;51.730;5.356;2022-08-05T09:11:21;2.45;;;0.73;;
24617;SDS011;12762;51.730;5.356;2022-08-05T09:14:10;1.65;;;0.70;;
24617;SDS011;12762;51.730;5.356;2022-08-05T09:16:58;2.00;;;0.50;;
24617;SDS011;12762;51.730;5.356;2022-08-05T09:19:25;1.80;;;0.93;;
24617;SDS011;12762;51.730;5.356;2022-08-05T09:22:12;0.90;;;0.55;;
24617;SDS011;12762;51.730;5.356;2022-08-05T09:25:00;5.03;;;0.65;;
24617;SDS011;12762;51.730;5.356;2022-08-05T09:27:47;1.13;;;0.50;;
24617;SDS011;12762;51.730;5.356;2022-08-05T09:30:32;3.45;;;0.88;;
24617;SDS011;12762;51.730;5.356;2022-08-05T09:33:02;2.15;;;0.50;;
24617;SDS011;12762;51.730;5.356;2022-08-05T09:35:30;2.33;;;0.50;;
24617;SDS011;12762;51.730;5.356;2022-08-05T09:38:00;1.35;;;0.43;;
24617;SDS011;12762;51.730;5.356;2022-08-05T09:40:43;3.38;;;0.50;;
24617;SDS011;12762;51.730;5.356;2022-08-05T09:43:25;2.10;;;0.55;;
24617;SDS011;12762;51.730;5.356;2022-08-05T09:46:07;1.35;;;0.60;;
24617;SDS011;12762;51.730;5.356;2022-08-05T09:48:56;1.20;;;0.43;;
24617;SDS011;12762;51.730;5.356;2022-08-05T09:51:44;1.85;;;0.60;;
24617;SDS011;12762;51.730;5.356;2022-08-05T09:54:15;1.95;;;0.45;;
24617;SDS011;12762;51.730;5.356;2022-08-05T09:56:54;2.60;;;0.70;;
24617;SDS011;12762;51.730;5.356;2022-08-05T09:59:22;2.78;;;0.50;;
24617;SDS011;12762;51.730;5.356;2022-08-05T10:01:53;1.05;;;0.38;;
24617;SDS011;12762;51.730;5.356;2022-08-05T10:04:31;2.15;;;0.50;;
24617;SDS011;12762;51.730;5.356;2022-08-05T10:07:05;1.88;;;0.38;;
24617;SDS011;12762;51.730;5.356;2022-08-05T10:09:54;1.65;;;0.30;;
24617;SDS011;12762;51.730;5.356;2022-08-05T10:12:47;0.77;;;0.30;;
24617;SDS011;12762;51.730;5.356;2022-08-05T10:15:22;1.60;;;0.20;;
24617;SDS011;12762;51.730;5.356;2022-08-05T10:18:15;1.33;;;0.20;;
24617;SDS011;12762;51.730;5.356;2022-08-05T10:20:48;1.30;;;0.40;;
24617;SDS011;12762;51.730;5.356;2022-08-05T10:23:18;0.75;;;0.40;;
24617;SDS011;12762;51.730;5.356;2022-08-05T10:26:08;0.88;;;0.30;;
24617;SDS011;12762;51.730;5.356;2022-08-05T10:28:40;0.95;;;0.40;;
24617;SDS011;12762;51.730;5.356;2022-08-05T10:31:10;2.47;;;0.40;;
24617;SDS011;12762;51.730;5.356;2022-08-05T10:33:59;1.50;;;0.30;;
24617;SDS011;12762;51.730;5.356;2022-08-05T10:36:37;0.60;;;0.40;;
24617;SDS011;12762;51.730;5.356;2022-08-05T10:39:08;2.85;;;0.30;;
24617;SDS011;12762;51.730;5.356;2022-08-05T10:41:58;0.43;;;0.20;;
24617;SDS011;12762;51.730;5.356;2022-08-05T10:44:37;0.73;;;0.22;;
24617;SDS011;12762;51.730;5.356;2022-08-05T10:47:09;0.57;;;0.30;;
24617;SDS011;12762;51.730;5.356;2022-08-05T10:52:54;0.93;;;0.40;;
24617;SDS011;12762;51.730;5.356;2022-08-05T10:55:26;1.20;;;0.30;;
24617;SDS011;12762;51.730;5.356;2022-08-05T10:58:16;1.90;;;0.40;;
24617;SDS011;12762;51.730;5.356;2022-08-05T11:00:46;1.20;;;0.63;;
24617;SDS011;12762;51.730;5.356;2022-08-05T11:03:25;1.42;;;0.50;;
24617;SDS011;12762;51.730;5.356;2022-08-05T11:06:03;2.17;;;0.47;;
24617;SDS011;12762;51.730;5.356;2022-08-05T11:12:04;2.47;;;0.57;;
24617;SDS011;12762;51.730;5.356;2022-08-05T11:17:53;2.67;;;0.40;;
24617;SDS011;12762;51.730;5.356;2022-08-05T11:20:35;1.85;;;0.68;;
24617;SDS011;12762;51.730;5.356;2022-08-05T11:26:29;2.92;;;0.57;;
24617;SDS011;12762;51.730;5.356;2022-08-05T11:28:59;1.95;;;0.55;;
24617;SDS011;12762;51.730;5.356;2022-08-05T11:31:39;2.90;;;0.60;;
24617;SDS011;12762;51.730;5.356;2022-08-05T11:34:38;4.95;;;0.50;;
24617;SDS011;12762;51.730;5.356;2022-08-05T11:40:55;2.35;;;0.55;;
24617;SDS011;12762;51.730;5.356;2022-08-05T11:43:43;1.55;;;0.50;;
24617;SDS011;12762;51.730;5.356;2022-08-05T11:46:38;1.20;;;0.30;;
24617;SDS011;12762;51.730;5.356;2022-08-05T11:49:27;1.17;;;0.60;;
24617;SDS011;12762;51.730;5.356;2022-08-05T11:51:59;1.15;;;0.40;;
24617;SDS011;12762;51.730;5.356;2022-08-05T11:54:34;0.90;;;0.28;;
24617;SDS011;12762;51.730;5.356;2022-08-05T11:57:05;1.48;;;0.50;;
24617;SDS011;12762;51.730;5.356;2022-08-05T11:59:52;3.00;;;0.38;;
24617;SDS011;12762;51.730;5.356;2022-08-05T12:02:27;2.65;;;0.60;;
24617;SDS011;12762;51.730;5.356;2022-08-05T12:05:02;5.40;;;0.47;;
24617;SDS011;12762;51.730;5.356;2022-08-05T12:07:34;2.13;;;0.50;;
24617;SDS011;12762;51.730;5.356;2022-08-05T12:10:26;4.03;;;0.38;;
24617;SDS011;12762;51.730;5.356;2022-08-05T12:13:10;0.95;;;0.40;;
24617;SDS011;12762;51.730;5.356;2022-08-05T12:15:43;2.90;;;0.50;;
24617;SDS011;12762;51.730;5.356;2022-08-05T12:18:18;2.75;;;0.45;;
24617;SDS011;12762;51.730;5.356;2022-08-05T12:21:14;1.95;;;0.40;;
24617;SDS011;12762;51.730;5.356;2022-08-05T12:24:18;2.25;;;0.40;;
24617;SDS011;12762;51.730;5.356;2022-08-05T12:26:44;1.40;;;0.30;;
24617;SDS011;12762;51.730;5.356;2022-08-05T12:29:15;0.73;;;0.20;;
24617;SDS011;12762;51.730;5.356;2022-08-05T12:34:28;2.30;;;0.30;;
24617;SDS011;12762;51.730;5.356;2022-08-05T12:36:59;0.70;;;0.30;;
24617;SDS011;12762;51.730;5.356;2022-08-05T12:39:36;1.35;;;0.30;;
24617;SDS011;12762;51.730;5.356;2022-08-05T12:42:08;1.10;;;0.30;;
24617;SDS011;12762;51.730;5.356;2022-08-05T12:44:40;0.73;;;0.30;;
24617;SDS011;12762;51.730;5.356;2022-08-05T12:47:09;2.50;;;0.32;;
24617;SDS011;12762;51.730;5.356;2022-08-05T12:49:44;2.78;;;0.28;;
24617;SDS011;12762;51.730;5.356;2022-08-05T12:52:32;1.70;;;0.20;;
24617;SDS011;12762;51.730;5.356;2022-08-05T12:57:48;3.60;;;0.25;;
24617;SDS011;12762;51.730;5.356;2022-08-05T13:00:35;1.55;;;0.25;;
24617;SDS011;12762;51.730;5.356;2022-08-05T13:03:28;1.38;;;0.25;;
24617;SDS011;12762;51.730;5.356;2022-08-05T13:05:58;0.60;;;0.22;;
24617;SDS011;12762;51.730;5.356;2022-08-05T13:08:29;3.13;;;0.38;;
24617;SDS011;12762;51.730;5.356;2022-08-05T13:10:58;0.77;;;0.20;;
24617;SDS011;12762;51.730;5.356;2022-08-05T13:13:29;3.97;;;0.30;;
24617;SDS011;12762;51.730;5.356;2022-08-05T13:16:17;2.28;;;0.40;;
24617;SDS011;12762;51.730;5.356;2022-08-05T13:18:55;1.08;;;0.30;;
24617;SDS011;12762;51.730;5.356;2022-08-05T13:21:24;2.63;;;0.30;;
24617;SDS011;12762;51.730;5.356;2022-08-05T13:24:02;3.60;;;0.40;;
24617;SDS011;12762;51.730;5.356;2022-08-05T13:26:29;4.00;;;0.70;;
24617;SDS011;12762;51.730;5.356;2022-08-05T13:28:56;4.70;;;0.30;;
24617;SDS011;12762;51.730;5.356;2022-08-05T13:31:25;2.60;;;0.43;;
24617;SDS011;12762;51.730;5.356;2022-08-05T13:34:12;2.58;;;0.40;;
24617;SDS011;12762;51.730;5.356;2022-08-05T13:36:50;1.55;;;0.22;;
24617;SDS011;12762;51.730;5.356;2022-08-05T13:39:18;2.05;;;0.40;;
24617;SDS011;12762;51.730;5.356;2022-08-05T13:42:05;1.85;;;0.40;;
24617;SDS011;12762;51.730;5.356;2022-08-05T13:44:32;0.98;;;0.30;;
24617;SDS011;12762;51.730;5.356;2022-08-05T13:47:00;1.13;;;0.47;;
24617;SDS011;12762;51.730;5.356;2022-08-05T13:49:34;1.73;;;0.30;;
24617;SDS011;12762;51.730;5.356;2022-08-05T13:52:11;3.55;;;0.50;;
24617;SDS011;12762;51.730;5.356;2022-08-05T13:54:40;0.20;;;0.08;;
24617;SDS011;12762;51.730;5.356;2022-08-05T13:57:07;1.73;;;0.32;;
24617;SDS011;12762;51.730;5.356;2022-08-05T13:59:41;2.35;;;0.38;;
24617;SDS011;12762;51.730;5.356;2022-08-05T14:02:24;0.77;;;0.30;;
24617;SDS011;12762;51.730;5.356;2022-08-05T14:04:56;1.65;;;0.40;;
24617;SDS011;12762;51.730;5.356;2022-08-05T14:07:54;2.90;;;0.30;;
24617;SDS011;12762;51.730;5.356;2022-08-05T14:10:32;1.90;;;0.43;;
24617;SDS011;12762;51.730;5.356;2022-08-05T14:13:02;3.60;;;0.40;;
24617;SDS011;12762;51.730;5.356;2022-08-05T14:15:31;1.58;;;0.30;;
24617;SDS011;12762;51.730;5.356;2022-08-05T14:18:18;3.08;;;0.40;;
24617;SDS011;12762;51.730;5.356;2022-08-05T14:20:49;2.47;;;0.35;;
24617;SDS011;12762;51.730;5.356;2022-08-05T14:23:20;1.52;;;0.30;;
24617;SDS011;12762;51.730;5.356;2022-08-05T14:25:54;3.28;;;0.35;;
24617;SDS011;12762;51.730;5.356;2022-08-05T14:28:25;2.28;;;0.30;;
24617;SDS011;12762;51.730;5.356;2022-08-05T14:30:53;2.92;;;0.30;;
24617;SDS011;12762;51.730;5.356;2022-08-05T14:33:21;0.82;;;0.20;;
24617;SDS011;12762;51.730;5.356;2022-08-05T14:35:49;0.73;;;0.38;;
24617;SDS011;12762;51.730;5.356;2022-08-05T14:38:17;2.58;;;0.45;;
24617;SDS011;12762;51.730;5.356;2022-08-05T14:40:59;1.55;;;0.38;;
24617;SDS011;12762;51.730;5.356;2022-08-05T14:43:33;1.73;;;0.50;;
24617;SDS011;12762;51.730;5.356;2022-08-05T14:46:21;0.30;;;0.22;;
24617;SDS011;12762;51.730;5.356;2022-08-05T14:48:55;1.58;;;0.25;;
24617;SDS011;12762;51.730;5.356;2022-08-05T14:51:25;0.77;;;0.20;;
24617;SDS011;12762;51.730;5.356;2022-08-05T14:53:56;1.05;;;0.30;;
24617;SDS011;12762;51.730;5.356;2022-08-05T14:56:44;1.55;;;0.13;;
24617;SDS011;12762;51.730;5.356;2022-08-05T14:59:12;1.05;;;0.20;;
24617;SDS011;12762;51.730;5.356;2022-08-05T15:01:40;0.93;;;0.22;;
24617;SDS011;12762;51.730;5.356;2022-08-05T15:04:14;1.08;;;0.15;;
24617;SDS011;12762;51.730;5.356;2022-08-05T15:06:41;2.38;;;0.40;;
24617;SDS011;12762;51.730;5.356;2022-08-05T15:09:14;2.55;;;0.50;;
24617;SDS011;12762;51.730;5.356;2022-08-05T15:12:01;1.40;;;0.28;;
24617;SDS011;12762;51.730;5.356;2022-08-05T15:14:29;1.25;;;0.55;;
24617;SDS011;12762;51.730;5.356;2022-08-05T15:17:07;1.77;;;0.50;;
24617;SDS011;12762;51.730;5.356;2022-08-05T15:19:58;1.50;;;0.32;;
24617;SDS011;12762;51.730;5.356;2022-08-05T15:22:25;1.48;;;0.40;;
24617;SDS011;12762;51.730;5.356;2022-08-05T15:24:54;0.52;;;0.20;;
24617;SDS011;12762;51.730;5.356;2022-08-05T15:27:21;1.20;;;0.35;;
24617;SDS011;12762;51.730;5.356;2022-08-05T15:29:51;2.13;;;0.47;;
24617;SDS011;12762;51.730;5.356;2022-08-05T15:32:22;1.38;;;0.30;;
24617;SDS011;12762;51.730;5.356;2022-08-05T15:34:53;1.08;;;0.30;;
24617;SDS011;12762;51.730;5.356;2022-08-05T15:37:21;1.13;;;0.30;;
24617;SDS011;12762;51.730;5.356;2022-08-05T15:40:10;0.30;;;0.20;;
24617;SDS011;12762;51.730;5.356;2022-08-05T15:42:58;2.00;;;0.45;;
24617;SDS011;12762;51.730;5.356;2022-08-05T15:45:41;1.20;;;0.30;;
24617;SDS011;12762;51.730;5.356;2022-08-05T15:48:11;2.58;;;0.40;;
24617;SDS011;12762;51.730;5.356;2022-08-05T15:50:39;0.80;;;0.40;;
24617;SDS011;12762;51.730;5.356;2022-08-05T15:53:10;9.10;;;0.50;;
24617;SDS011;12762;51.730;5.356;2022-08-05T15:55:38;1.35;;;0.40;;
24617;SDS011;12762;51.730;5.356;2022-08-05T15:58:26;0.90;;;0.25;;
24617;SDS011;12762;51.730;5.356;2022-08-05T16:00:53;1.50;;;0.47;;
24617;SDS011;12762;51.730;5.356;2022-08-05T16:03:40;1.58;;;0.30;;
24617;SDS011;12762;51.730;5.356;2022-08-05T16:06:08;1.83;;;0.38;;
24617;SDS011;12762;51.730;5.356;2022-08-05T16:08:36;3.47;;;0.50;;
24617;SDS011;12762;51.730;5.356;2022-08-05T16:11:05;4.38;;;0.68;;
24617;SDS011;12762;51.730;5.356;2022-08-05T16:13:33;2.00;;;0.60;;